EZY9002 EGCC-EGGP
Flight info
| Callsign | EZY9002 |
|---|---|
| Flight time | 0h 19m |
| Altitude | 8000 |
| Route | POL |
| Aircraft | A320/M-SDE3FGHIRWY/LB1 |
Departure
| Time | 2026-05-04 14:35 |
|---|---|
| Airport | Manchester Airport (EGCC) |
Arrival
| Time | 2026-05-04 14:54 |
|---|---|
| Airport | Liverpool John Lennon Airport (EGGP) |
| Time | Latitude | Longitude | Altitude | Speed | Heading |
|---|---|---|---|---|---|
| 2026-05-04 14:00 | 53.36917 | -2.28740 | 255 ft | 0 kts | 135° |
| 2026-05-04 14:08 | 53.36918 | -2.28740 | 255 ft | 0 kts | 135° |
| 2026-05-04 14:23 | 53.36949 | -2.28777 | 255 ft | 4 kts | 173° |
| 2026-05-04 14:23 | 53.36969 | -2.28770 | 255 ft | 1 kts | 224° |
| 2026-05-04 14:23 | 53.36969 | -2.28769 | 255 ft | 0 kts | 225° |
| 2026-05-04 14:27 | 53.36967 | -2.28772 | 255 ft | 3 kts | 225° |
| 2026-05-04 14:27 | 53.36943 | -2.28813 | 255 ft | 5 kts | 225° |
| 2026-05-04 14:27 | 53.36919 | -2.28853 | 255 ft | 7 kts | 225° |
| 2026-05-04 14:28 | 53.36859 | -2.28955 | 255 ft | 14 kts | 224° |
| 2026-05-04 14:28 | 53.36770 | -2.29038 | 255 ft | 16 kts | 188° |
| 2026-05-04 14:28 | 53.36684 | -2.28934 | 255 ft | 15 kts | 136° |
| 2026-05-04 14:28 | 53.36601 | -2.28836 | 255 ft | 15 kts | 124° |
| 2026-05-04 14:29 | 53.36457 | -2.28553 | 255 ft | 17 kts | 134° |
| 2026-05-04 14:29 | 53.36333 | -2.28265 | 255 ft | 10 kts | 135° |
| 2026-05-04 14:30 | 53.36286 | -2.28187 | 255 ft | 9 kts | 135° |
| 2026-05-04 14:30 | 53.36246 | -2.28120 | 255 ft | 7 kts | 135° |
| 2026-05-04 14:30 | 53.36102 | -2.27903 | 255 ft | 17 kts | 143° |
| 2026-05-04 14:31 | 53.36019 | -2.27800 | 255 ft | 14 kts | 138° |
| 2026-05-04 14:31 | 53.35823 | -2.27728 | 252 ft | 13 kts | 167° |
| 2026-05-04 14:32 | 53.35654 | -2.27569 | 246 ft | 14 kts | 141° |
| 2026-05-04 14:32 | 53.35579 | -2.27468 | 245 ft | 11 kts | 142° |
| 2026-05-04 14:32 | 53.35573 | -2.27460 | 245 ft | 0 kts | 142° |
| 2026-05-04 14:32 | 53.35533 | -2.27405 | 247 ft | 15 kts | 140° |
| 2026-05-04 14:33 | 53.35452 | -2.27295 | 248 ft | 16 kts | 141° |
| 2026-05-04 14:33 | 53.35355 | -2.27194 | 245 ft | 17 kts | 168° |
| 2026-05-04 14:33 | 53.35237 | -2.27222 | 240 ft | 20 kts | 191° |
| 2026-05-04 14:33 | 53.35128 | -2.27257 | 229 ft | 16 kts | 190° |
| 2026-05-04 14:34 | 53.35035 | -2.27294 | 226 ft | 11 kts | 201° |
| 2026-05-04 14:34 | 53.35008 | -2.27325 | 225 ft | 2 kts | 224° |
| 2026-05-04 14:34 | 53.34873 | -2.27603 | 222 ft | 69 kts | 231° |
| 2026-05-04 14:34 | 53.34432 | -2.28511 | 226 ft | 129 kts | 231° |
| 2026-05-04 14:35 | 53.33776 | -2.29862 | 405 ft | 162 kts | 231° |
| 2026-05-04 14:35 | 53.33118 | -2.31456 | 997 ft | 168 kts | 250° |
| 2026-05-04 14:35 | 53.32854 | -2.33401 | 1621 ft | 178 kts | 257° |
| 2026-05-04 14:35 | 53.32552 | -2.35512 | 1961 ft | 200 kts | 256° |
| 2026-05-04 14:36 | 53.32187 | -2.37920 | 2312 ft | 226 kts | 256° |
| 2026-05-04 14:36 | 53.31776 | -2.40605 | 2830 ft | 249 kts | 256° |
| 2026-05-04 14:36 | 53.31336 | -2.43471 | 3660 ft | 257 kts | 256° |
| 2026-05-04 14:36 | 53.30884 | -2.46410 | 4567 ft | 264 kts | 256° |
| 2026-05-04 14:37 | 53.30427 | -2.49409 | 4905 ft | 266 kts | 256° |
| 2026-05-04 14:37 | 53.29970 | -2.52415 | 4991 ft | 266 kts | 256° |
| 2026-05-04 14:37 | 53.29519 | -2.55381 | 5002 ft | 266 kts | 256° |
| 2026-05-04 14:37 | 53.29061 | -2.58391 | 5001 ft | 267 kts | 256° |
| 2026-05-04 14:38 | 53.28609 | -2.61366 | 4996 ft | 267 kts | 256° |
| 2026-05-04 14:38 | 53.28152 | -2.64373 | 4997 ft | 267 kts | 256° |
| 2026-05-04 14:38 | 53.27690 | -2.67393 | 4997 ft | 267 kts | 256° |
| 2026-05-04 14:38 | 53.27227 | -2.70397 | 4996 ft | 267 kts | 256° |
| 2026-05-04 14:39 | 53.26768 | -2.73381 | 4998 ft | 267 kts | 256° |
| 2026-05-04 14:39 | 53.26307 | -2.76392 | 4990 ft | 267 kts | 256° |
| 2026-05-04 14:39 | 53.25899 | -2.79435 | 4990 ft | 267 kts | 264° |
| 2026-05-04 14:40 | 53.26603 | -2.85416 | 5416 ft | 274 kts | 300° |
| 2026-05-04 14:40 | 53.27627 | -2.88072 | 6050 ft | 270 kts | 304° |
| 2026-05-04 14:40 | 53.28656 | -2.90661 | 6439 ft | 275 kts | 303° |
| 2026-05-04 14:40 | 53.29709 | -2.93315 | 6302 ft | 272 kts | 303° |
| 2026-05-04 14:41 | 53.30752 | -2.95946 | 6170 ft | 270 kts | 303° |
| 2026-05-04 14:41 | 53.31792 | -2.98570 | 6055 ft | 270 kts | 303° |
| 2026-05-04 14:41 | 53.33845 | -3.03760 | 5707 ft | 267 kts | 303° |
| 2026-05-04 14:42 | 53.35887 | -3.08926 | 4859 ft | 265 kts | 304° |
| 2026-05-04 14:42 | 53.36880 | -3.11447 | 4454 ft | 263 kts | 303° |
| 2026-05-04 14:42 | 53.37883 | -3.14001 | 4043 ft | 261 kts | 303° |
| 2026-05-04 14:43 | 53.38868 | -3.16513 | 3633 ft | 260 kts | 303° |
| 2026-05-04 14:43 | 53.39865 | -3.19054 | 3212 ft | 260 kts | 303° |
| 2026-05-04 14:43 | 53.40851 | -3.21568 | 2788 ft | 259 kts | 303° |
| 2026-05-04 14:43 | 53.41838 | -3.24079 | 2504 ft | 257 kts | 302° |
| 2026-05-04 14:44 | 53.42616 | -3.26730 | 2492 ft | 257 kts | 287° |
| 2026-05-04 14:44 | 53.42944 | -3.29672 | 2500 ft | 257 kts | 271° |
| 2026-05-04 14:44 | 53.42790 | -3.32628 | 2497 ft | 247 kts | 256° |
| 2026-05-04 14:44 | 53.42312 | -3.35301 | 2495 ft | 230 kts | 252° |
| 2026-05-04 14:45 | 53.41854 | -3.37776 | 2495 ft | 214 kts | 252° |
| 2026-05-04 14:45 | 53.41434 | -3.40062 | 2498 ft | 200 kts | 252° |
| 2026-05-04 14:45 | 53.41035 | -3.42237 | 2495 ft | 191 kts | 252° |
| 2026-05-04 14:45 | 53.40649 | -3.44344 | 2498 ft | 188 kts | 251° |
| 2026-05-04 14:46 | 53.39983 | -3.46169 | 2518 ft | 184 kts | 219° |
| 2026-05-04 14:46 | 53.38828 | -3.47013 | 2527 ft | 183 kts | 185° |
| 2026-05-04 14:46 | 53.37605 | -3.46576 | 2500 ft | 183 kts | 150° |
| 2026-05-04 14:46 | 53.36752 | -3.45037 | 2496 ft | 184 kts | 115° |
| 2026-05-04 14:47 | 53.36404 | -3.42980 | 2495 ft | 184 kts | 104° |
| 2026-05-04 14:47 | 53.36107 | -3.40897 | 2496 ft | 184 kts | 104° |
| 2026-05-04 14:47 | 53.35812 | -3.38825 | 2494 ft | 184 kts | 104° |
| 2026-05-04 14:47 | 53.35512 | -3.36737 | 2494 ft | 184 kts | 104° |
| 2026-05-04 14:48 | 53.35211 | -3.34651 | 2496 ft | 184 kts | 104° |
| 2026-05-04 14:48 | 53.34908 | -3.32553 | 2499 ft | 184 kts | 104° |
| 2026-05-04 14:48 | 53.34608 | -3.30468 | 2499 ft | 184 kts | 104° |
| 2026-05-04 14:48 | 53.34310 | -3.28405 | 2496 ft | 184 kts | 104° |
| 2026-05-04 14:49 | 53.34006 | -3.26319 | 2496 ft | 184 kts | 104° |
| 2026-05-04 14:49 | 53.33700 | -3.24230 | 2495 ft | 184 kts | 104° |
| 2026-05-04 14:49 | 53.33398 | -3.22164 | 2496 ft | 184 kts | 104° |
| 2026-05-04 14:49 | 53.33092 | -3.20071 | 2495 ft | 184 kts | 104° |
| 2026-05-04 14:50 | 53.32787 | -3.17991 | 2497 ft | 184 kts | 104° |
| 2026-05-04 14:50 | 53.32483 | -3.15907 | 2499 ft | 184 kts | 104° |
| 2026-05-04 14:50 | 53.32178 | -3.13822 | 2497 ft | 184 kts | 104° |
| 2026-05-04 14:50 | 53.32104 | -3.11713 | 2498 ft | 185 kts | 87° |
| 2026-05-04 14:51 | 53.32198 | -3.09596 | 2489 ft | 176 kts | 86° |
| 2026-05-04 14:51 | 53.32295 | -3.07606 | 2470 ft | 169 kts | 86° |
| 2026-05-04 14:51 | 53.32389 | -3.05655 | 2330 ft | 167 kts | 84° |
| 2026-05-04 14:51 | 53.32481 | -3.03729 | 2134 ft | 166 kts | 84° |
| 2026-05-04 14:52 | 53.32573 | -3.01793 | 1919 ft | 166 kts | 84° |
| 2026-05-04 14:52 | 53.32664 | -2.99890 | 1695 ft | 161 kts | 83° |
| 2026-05-04 14:52 | 53.32750 | -2.98060 | 1482 ft | 155 kts | 83° |
| 2026-05-04 14:52 | 53.32836 | -2.96241 | 1155 ft | 158 kts | 83° |
| 2026-05-04 14:53 | 53.32905 | -2.94459 | 947 ft | 152 kts | 84° |
| 2026-05-04 14:53 | 53.32988 | -2.92700 | 788 ft | 150 kts | 83° |
| 2026-05-04 14:53 | 53.33079 | -2.90962 | 585 ft | 149 kts | 79° |
| 2026-05-04 14:53 | 53.33180 | -2.89235 | 378 ft | 151 kts | 86° |
| 2026-05-04 14:54 | 53.33237 | -2.87490 | 217 ft | 150 kts | 80° |
| 2026-05-04 14:54 | 53.33330 | -2.85794 | 81 ft | 141 kts | 84° |
| 2026-05-04 14:54 | 53.33382 | -2.84627 | 68 ft | 59 kts | 85° |
| 2026-05-04 14:54 | 53.33393 | -2.84356 | 78 ft | 17 kts | 86° |
| 2026-05-04 14:55 | 53.33402 | -2.84143 | 77 ft | 19 kts | 85° |
| 2026-05-04 14:55 | 53.33412 | -2.83900 | 83 ft | 21 kts | 87° |
| 2026-05-04 14:55 | 53.33425 | -2.83665 | 71 ft | 17 kts | 82° |
| 2026-05-04 14:55 | 53.33496 | -2.83632 | 75 ft | 12 kts | 352° |
| 2026-05-04 14:56 | 53.33514 | -2.83635 | 84 ft | 0 kts | 355° |
| 2026-05-04 14:56 | 53.33522 | -2.83635 | 84 ft | 5 kts | 358° |
| 2026-05-04 14:56 | 53.33570 | -2.83646 | 81 ft | 5 kts | 330° |
| 2026-05-04 14:56 | 53.33590 | -2.83696 | 84 ft | 8 kts | 289° |
| 2026-05-04 14:57 | 53.33586 | -2.83777 | 79 ft | 0 kts | 264° |
| 2026-05-04 14:57 | 53.33585 | -2.83794 | 73 ft | 3 kts | 264° |
| 2026-05-04 14:57 | 53.33582 | -2.83838 | 72 ft | 5 kts | 264° |
| 2026-05-04 14:57 | 53.33579 | -2.83895 | 77 ft | 5 kts | 264° |
| 2026-05-04 14:58 | 53.33575 | -2.83953 | 74 ft | 5 kts | 264° |
| 2026-05-04 14:58 | 53.33573 | -2.83997 | 70 ft | 3 kts | 265° |